Time;durP1;ratioP1;P1;durP2;ratioP2;P2;SDS_P1;SDS_P2;PMS_P1;PMS_P2;Temp;Humidity;BMP_temperature;BMP_pressure;BME280_temperature;BME280_humidity;BME280_pressure;Samples;Min_cycle;Max_cycle;Signal;HPM_P1;HPM_P2
2024/01/20 00:04:33;;;;;;;10.00;4.03;;;;;;;-4.90;80.29;100343.78;7246866;40;20238;31
2024/01/20 00:10:10;;;;;;;7.77;4.00;;;;;;;-4.75;81.55;100330.22;7261554;39;20264;31
2024/01/20 00:15:44;;;;;;;6.17;4.07;;;;;;;-4.82;80.53;100339.16;7228469;40;20294;31
2024/01/20 00:21:19;;;;;;;7.47;4.23;;;;;;;-4.81;81.16;100343.50;7185145;40;20246;31
2024/01/20 00:26:55;;;;;;;8.50;4.63;;;;;;;-4.80;80.86;100345.25;7206781;40;20343;31
2024/01/20 00:32:30;;;;;;;8.43;4.50;;;;;;;-4.99;80.30;100341.38;7221157;40;20292;31
2024/01/20 00:38:05;;;;;;;5.63;3.73;;;;;;;-5.24;80.47;100350.84;7262236;40;20257;31
2024/01/20 00:43:42;;;;;;;7.67;3.70;;;;;;;-5.32;81.82;100358.94;7278691;40;20238;31
2024/01/20 00:49:02;;;;;;;8.33;4.27;;;;;;;-5.16;83.24;100365.50;7218140;40;20239;31
2024/01/20 00:54:37;;;;;;;7.50;3.83;;;;;;;-5.13;82.75;100368.03;7199331;40;20289;31
2024/01/20 01:00:13;;;;;;;6.27;3.40;;;;;;;-5.22;83.03;100363.03;7171620;40;20262;31
2024/01/20 01:05:31;;;;;;;6.50;3.80;;;;;;;-5.24;84.00;100353.47;7004021;40;20250;31
2024/01/20 01:11:06;;;;;;;6.93;3.97;;;;;;;-5.11;84.15;100339.97;7242561;40;20241;31
2024/01/20 01:16:40;;;;;;;6.73;3.60;;;;;;;-5.26;82.29;100342.97;7243246;40;20288;31
2024/01/20 01:27:18;;;;;;;7.10;3.85;;;;;;;-5.46;81.94;100359.28;7236130;40;20903;31
2024/01/20 01:37:58;;;;;;;5.43;3.67;;;;;;;-5.51;81.65;100378.66;7235674;40;21543;31
2024/01/20 01:48:38;;;;;;;7.85;4.05;;;;;;;-5.75;82.20;100395.88;7282607;39;20839;31
2024/01/20 01:54:14;;;;;;;4.90;3.40;;;;;;;-5.54;81.80;100405.88;7236997;40;20284;31
2024/01/20 01:59:49;;;;;;;6.80;3.45;;;;;;;-5.63;80.44;100406.09;7284219;40;20350;31
2024/01/20 02:05:24;;;;;;;6.00;3.70;;;;;;;-5.97;80.76;100415.66;7278760;40;20370;31
2024/01/20 02:11:01;;;;;;;6.63;3.50;;;;;;;-6.09;81.32;100411.53;7245991;40;20256;31
2024/01/20 02:16:21;;;;;;;5.27;3.30;;;;;;;-5.94;81.94;100407.72;7254516;39;20241;31
2024/01/20 02:21:58;;;;;;;7.33;2.97;;;;;;;-6.10;80.65;100411.59;7250785;40;20260;31
2024/01/20 02:27:33;;;;;;;6.03;3.40;;;;;;;-6.17;81.74;100412.59;7256801;39;20261;31
2024/01/20 02:33:08;;;;;;;8.20;3.70;;;;;;;-6.07;82.08;100415.00;7236102;40;20273;31
2024/01/20 02:38:28;;;;;;;7.23;3.90;;;;;;;-5.85;81.70;100407.47;7218353;40;20347;31
2024/01/20 02:44:05;;;;;;;5.77;3.30;;;;;;;-5.77;81.30;100412.53;7190557;40;20320;31
2024/01/20 02:49:40;;;;;;;5.37;3.07;;;;;;;-5.79;80.87;100409.94;7165638;40;20254;31
2024/01/20 02:55:15;;;;;;;6.47;3.90;;;;;;;-5.75;80.87;100416.87;7213698;40;20245;31
2024/01/20 03:06:50;;;;;;;5.60;3.77;;;;;;;-5.96;79.25;100420.00;7278697;39;20280;31
2024/01/20 03:17:14;;;;;;;6.65;3.50;;;;;;;-6.60;81.82;100405.63;7235041;40;20707;31
2024/01/20 03:27:55;;;;;;;6.00;3.67;;;;;;;-6.06;82.32;100426.38;7269675;39;20330;31
2024/01/20 03:38:21;;;;;;;5.67;3.57;;;;;;;-5.95;81.76;100419.97;7308244;39;20742;31
2024/01/20 03:48:58;;;;;;;9.20;3.33;;;;;;;-6.21;81.25;100432.78;7280371;39;21425;31
2024/01/20 03:54:19;;;;;;;7.20;3.23;;;;;;;-6.12;81.82;100445.72;7259006;39;20241;31
2024/01/20 03:59:39;;;;;;;6.70;3.97;;;;;;;-6.08;81.91;100452.62;7247106;40;20310;31
2024/01/20 04:05:15;;;;;;;6.23;3.40;;;;;;;-6.07;81.24;100448.25;7237627;40;20238;31
2024/01/20 04:10:50;;;;;;;9.23;3.70;;;;;;;-6.00;81.19;100444.59;7210499;40;20246;31
2024/01/20 04:21:31;;;;;;;7.30;3.05;;;;;;;-6.08;79.45;100450.00;7183242;40;20262;31
2024/01/20 04:27:06;;;;;;;6.03;3.83;;;;;;;-6.35;79.93;100458.44;7209633;40;20238;31
2024/01/20 04:32:27;;;;;;;4.83;3.00;;;;;;;-6.45;79.54;100465.59;7234372;40;20242;31
2024/01/20 04:38:03;;;;;;;6.40;3.10;;;;;;;-6.62;80.72;100472.06;7253529;39;20339;31
2024/01/20 04:43:24;;;;;;;6.23;3.67;;;;;;;-6.40;81.43;100471.63;7225409;39;20245;31
2024/01/20 04:48:44;;;;;;;6.97;4.33;;;;;;;-6.24;81.22;100481.84;7260645;39;20262;31
2024/01/20 04:54:19;;;;;;;6.30;3.37;;;;;;;-6.22;80.62;100487.91;7280419;39;20259;31
2024/01/20 04:59:53;;;;;;;7.05;3.30;;;;;;;-6.29;80.82;100502.03;7251128;40;21452;31
2024/01/20 05:05:14;;;;;;;5.33;3.20;;;;;;;-6.48;81.11;100507.63;7252321;40;20349;31
2024/01/20 05:10:50;;;;;;;5.80;3.45;;;;;;;-6.60;82.25;100494.75;7229099;40;20273;31
2024/01/20 05:16:25;;;;;;;5.60;3.00;;;;;;;-6.67;81.33;100490.50;7259870;39;20240;31
2024/01/20 05:21:45;;;;;;;5.80;3.30;;;;;;;-6.78;81.03;100486.34;7318313;39;20385;31
2024/01/20 05:27:20;;;;;;;6.75;3.50;;;;;;;-6.93;81.78;100479.62;7280318;39;20277;31
2024/01/20 05:32:55;;;;;;;5.50;3.60;;;;;;;-6.70;82.08;100479.22;7246738;40;20296;31
2024/01/20 05:38:30;;;;;;;5.37;3.47;;;;;;;-6.53;81.20;100496.34;7234577;40;20253;31
2024/01/20 05:44:06;;;;;;;4.03;2.70;;;;;;;-6.56;81.56;100498.19;7225153;40;20335;31
2024/01/20 05:54:27;;;;;;;6.67;3.67;;;;;;;-6.72;85.02;100513.34;7197107;40;21304;31
2024/01/20 06:05:08;;;;;;;4.67;3.53;;;;;;;-6.60;86.05;100515.72;7301177;39;20347;31
2024/01/20 06:15:47;;;;;;;6.00;3.70;;;;;;;-6.59;84.71;100530.56;7280221;39;20836;31
2024/01/20 06:26:27;;;;;;;6.10;3.60;;;;;;;-6.79;83.46;100535.28;7279751;39;21325;31
2024/01/20 06:36:48;;;;;;;7.30;3.60;;;;;;;-6.76;82.49;100542.25;7275778;40;21330;31
2024/01/20 06:42:25;;;;;;;11.00;3.80;;;;;;;-6.69;82.90;100562.19;7260778;40;20245;31
2024/01/20 06:47:45;;;;;;;5.63;3.13;;;;;;;-7.05;81.57;100567.13;7244995;40;20309;31
2024/01/20 06:53:21;;;;;;;6.45;3.95;;;;;;;-7.11;82.71;100576.88;7284202;39;20236;31
2024/01/20 06:58:58;;;;;;;10.10;5.07;;;;;;;-6.78;83.31;100583.31;7330276;39;20240;31
2024/01/20 07:04:33;;;;;;;7.63;4.93;;;;;;;-6.61;82.66;100573.41;7274757;40;20256;31
2024/01/20 07:10:08;;;;;;;8.20;4.60;;;;;;;-6.99;81.39;100589.75;7277393;40;20257;31
2024/01/20 07:15:43;;;;;;;7.05;4.12;;;;;;;-7.28;81.75;100591.03;7227189;40;20255;31
2024/01/20 07:21:16;;;;;;;7.50;3.80;;;;;;;-7.10;82.23;100596.91;7159934;40;20418;31
2024/01/20 07:26:36;;;;;;;6.60;4.35;;;;;;;-7.02;81.02;100614.25;7143118;40;20286;31
2024/01/20 07:32:12;;;;;;;7.07;4.17;;;;;;;-7.01;81.65;100609.87;7180816;40;20239;31
2024/01/20 07:37:47;;;;;;;6.87;3.93;;;;;;;-6.89;81.03;100612.31;7177682;40;20247;31
2024/01/20 07:43:22;;;;;;;5.30;3.70;;;;;;;-7.17;81.56;100611.00;7167887;40;20261;31
2024/01/20 07:48:56;;;;;;;4.63;2.50;;;;;;;-7.33;85.12;100628.69;7184833;40;20258;31
2024/01/20 07:54:16;;;;;;;10.87;3.90;;;;;;;-7.01;87.32;100634.31;7166011;40;20606;31
2024/01/20 07:59:33;;;;;;;6.37;3.67;;;;;;;-6.71;87.19;100643.47;7203342;40;20317;31
2024/01/20 08:05:09;;;;;;;6.37;3.87;;;;;;;-6.51;86.41;100636.16;7238057;40;20237;31
2024/01/20 08:10:44;;;;;;;7.50;4.40;;;;;;;-6.37;87.67;100650.81;7257408;40;20242;31
2024/01/20 08:16:20;;;;;;;5.65;3.55;;;;;;;-6.27;89.31;100645.34;7030453;40;20230;31
2024/01/20 08:21:57;;;;;;;8.20;3.27;;;;;;;-6.14;90.85;100644.25;7219139;40;20242;31
2024/01/20 08:27:32;;;;;;;5.17;3.13;;;;;;;-6.02;91.13;100645.81;7198130;40;20247;31
2024/01/20 08:32:52;;;;;;;8.20;4.13;;;;;;;-5.84;90.34;100653.31;7178710;40;20258;31
2024/01/20 08:38:28;;;;;;;7.07;3.47;;;;;;;-5.73;89.36;100650.47;7207072;40;20238;31
2024/01/20 08:44:00;;;;;;;5.60;3.70;;;;;;;-5.65;89.25;100659.06;7218432;40;20344;31
2024/01/20 08:49:35;;;;;;;6.47;3.83;;;;;;;-5.51;88.92;100659.66;7206502;40;20262;31
2024/01/20 08:55:12;;;;;;;6.43;3.53;;;;;;;-5.38;88.68;100662.91;7170675;40;20350;31
2024/01/20 09:00:29;;;;;;;6.93;3.73;;;;;;;-5.25;88.18;100669.62;7172435;40;20255;31
2024/01/20 09:05:49;;;;;;;5.73;4.10;;;;;;;-5.07;87.95;100685.00;7199407;40;20351;31
2024/01/20 09:11:25;;;;;;;7.53;3.97;;;;;;;-5.07;89.91;100685.88;7208762;40;20242;31
2024/01/20 09:16:46;;;;;;;8.40;4.57;;;;;;;-4.91;89.33;100701.34;7216939;40;20236;31
2024/01/20 09:22:06;;;;;;;7.73;4.77;;;;;;;-4.78;90.05;100703.62;7297570;39;20246;31
2024/01/20 09:27:42;;;;;;;21.73;12.60;;;;;;;-4.69;90.77;100698.16;7268403;39;20236;31
2024/01/20 09:33:05;;;;;;;8.60;5.53;;;;;;;-4.52;91.11;100704.81;7258183;40;20265;31
2024/01/20 09:38:28;;;;;;;10.67;6.70;;;;;;;-4.35;91.02;100713.19;7280186;39;20261;31
2024/01/20 09:44:16;;;;;;;10.97;6.93;;;;;;;-4.18;90.53;100711.00;7294990;39;21270;31
2024/01/20 09:54:53;;;;;;;16.15;9.60;;;;;;;-3.89;89.52;100713.78;7202074;40;20302;31
2024/01/20 10:00:30;;;;;;;11.33;7.80;;;;;;;-3.75;89.24;100703.75;7243608;40;20256;31
2024/01/20 10:06:02;;;;;;;14.43;9.00;;;;;;;-3.64;88.84;100706.09;7255103;39;20246;31
2024/01/20 10:11:38;;;;;;;15.00;8.70;;;;;;;-3.57;89.54;100712.94;7256691;40;20281;31
2024/01/20 10:17:15;;;;;;;14.63;8.87;;;;;;;-3.53;90.33;100717.22;7159414;40;20247;31
2024/01/20 10:22:36;;;;;;;15.83;9.23;;;;;;;-3.36;90.33;100711.47;7109164;40;20295;31
2024/01/20 10:28:10;;;;;;;15.30;8.60;;;;;;;-3.29;90.73;100707.78;7152790;40;20259;31
2024/01/20 10:38:52;;;;;;;13.70;8.90;;;;;;;-3.04;90.03;100700.91;7196289;40;20774;31
2024/01/20 10:49:32;;;;;;;17.20;11.25;;;;;;;-2.70;89.74;100686.69;7167403;40;20858;31
2024/01/20 10:55:09;;;;;;;16.30;10.93;;;;;;;-2.50;89.51;100694.87;7219212;40;20379;31
2024/01/20 11:00:45;;;;;;;16.60;9.67;;;;;;;-2.41;89.15;100691.91;7266098;40;20327;31
2024/01/20 11:06:07;;;;;;;14.73;9.10;;;;;;;-2.27;89.39;100674.72;7257275;40;20347;31
2024/01/20 11:11:44;;;;;;;18.57;12.47;;;;;;;-2.10;88.71;100671.53;7238514;40;20242;31
2024/01/20 11:17:26;;;;;;;20.95;13.25;;;;;;;-1.99;88.01;100661.47;7205792;40;20246;31
2024/01/20 11:28:05;;;;;;;15.45;10.25;;;;;;;-1.71;88.16;100647.31;7208182;40;20788;31
2024/01/20 11:38:41;;;;;;;14.67;9.90;;;;;;;-1.42;86.18;100641.84;7214041;40;21295;31
2024/01/20 11:44:17;;;;;;;16.25;9.90;;;;;;;-1.33;86.41;100638.84;7256065;40;20242;31
2024/01/20 11:49:54;;;;;;;12.55;8.20;;;;;;;-1.22;86.77;100631.38;7283052;40;20374;31
2024/01/20 11:55:14;;;;;;;12.93;9.40;;;;;;;-1.09;85.56;100632.63;7267130;39;20561;31
2024/01/20 12:05:54;;;;;;;14.30;9.65;;;;;;;-0.86;85.11;100629.09;7237661;40;20980;31
2024/01/20 12:11:33;;;;;;;17.20;11.10;;;;;;;-0.77;84.84;100623.44;7225303;40;21367;31
2024/01/20 12:17:08;;;;;;;17.17;10.57;;;;;;;-0.67;84.67;100608.06;7231929;40;20250;31
2024/01/20 12:22:45;;;;;;;22.73;14.13;;;;;;;-0.63;84.45;100610.53;7198841;40;20247;31
2024/01/20 12:28:20;;;;;;;20.75;13.80;;;;;;;-0.47;84.64;100597.53;7160077;40;20247;31
2024/01/20 12:33:55;;;;;;;20.95;12.60;;;;;;;-0.36;83.98;100589.16;7140139;40;20385;31
2024/01/20 12:39:31;;;;;;;19.03;12.57;;;;;;;-0.26;83.51;100577.22;7135960;40;20401;31
2024/01/20 12:45:06;;;;;;;17.60;12.00;;;;;;;-0.08;83.81;100571.12;7192044;40;20282;31
2024/01/20 12:50:41;;;;;;;18.53;12.17;;;;;;;0.04;83.24;100575.94;7206512;40;20261;31
2024/01/20 12:56:19;;;;;;;16.70;11.70;;;;;;;0.09;83.77;100555.37;7179367;40;20255;31
2024/01/20 13:01:40;;;;;;;18.75;12.35;;;;;;;0.23;82.88;100555.63;7196259;40;20255;31
2024/01/20 13:07:01;;;;;;;17.30;12.03;;;;;;;0.44;83.26;100559.97;7180502;40;20369;31
2024/01/20 13:12:38;;;;;;;17.73;12.10;;;;;;;0.47;82.47;100558.97;7199885;40;21400;31
2024/01/20 13:17:59;;;;;;;16.87;11.60;;;;;;;0.56;82.97;100553.25;7240223;40;20276;31
2024/01/20 13:23:19;;;;;;;18.35;11.65;;;;;;;0.53;82.06;100542.75;7288338;39;20237;31
2024/01/20 13:28:55;;;;;;;15.75;11.30;;;;;;;0.59;81.89;100538.97;7279214;39;20337;31
2024/01/20 13:34:31;;;;;;;15.20;11.30;;;;;;;0.56;82.07;100539.13;7214170;40;20232;31
2024/01/20 13:40:06;;;;;;;18.97;10.83;;;;;;;0.53;80.66;100539.28;7236136;40;20236;31
2024/01/20 13:45:44;;;;;;;13.40;9.40;;;;;;;0.49;79.67;100530.56;7183566;40;20243;31
2024/01/20 13:51:04;;;;;;;12.90;9.40;;;;;;;0.41;80.30;100522.13;7151994;40;20255;31
2024/01/20 13:56:25;;;;;;;16.17;10.37;;;;;;;0.41;80.15;100517.69;7206213;40;20246;31
2024/01/20 14:02:01;;;;;;;16.90;10.97;;;;;;;0.36;79.94;100521.47;7213485;40;20257;31
2024/01/20 14:07:22;;;;;;;15.77;11.37;;;;;;;0.36;80.11;100532.06;7232753;40;20260;31
2024/01/20 14:12:41;;;;;;;16.30;10.15;;;;;;;0.25;79.51;100521.97;7267770;39;20381;31
2024/01/20 14:18:18;;;;;;;15.80;10.47;;;;;;;0.33;79.84;100525.13;7305029;39;20267;31
2024/01/20 14:23:39;;;;;;;16.20;11.03;;;;;;;0.32;79.62;100523.41;7234332;40;20405;31
2024/01/20 14:28:59;;;;;;;17.80;10.83;;;;;;;0.38;80.37;100533.72;7237307;40;20246;31
2024/01/20 14:34:35;;;;;;;19.13;12.13;;;;;;;0.36;79.90;100530.28;7264183;39;20350;31
2024/01/20 14:39:55;;;;;;;21.03;12.30;;;;;;;0.31;79.96;100536.72;7267207;39;20258;31
2024/01/20 14:45:30;;;;;;;20.07;12.60;;;;;;;0.27;80.21;100529.81;7222508;40;20265;31
2024/01/20 14:51:06;;;;;;;17.10;13.45;;;;;;;0.18;80.11;100533.75;7258529;40;20377;31
2024/01/20 14:56:29;;;;;;;19.23;14.33;;;;;;;0.16;81.08;100538.28;6996707;40;21158;31
2024/01/20 15:01:58;;;;;;;21.57;14.27;;;;;;;0.14;81.59;100544.56;7139000;40;20381;31
2024/01/20 15:07:34;;;;;;;21.50;14.55;;;;;;;0.07;81.95;100551.06;7148223;40;20239;31
2024/01/20 15:13:09;;;;;;;34.73;20.40;;;;;;;0.03;82.68;100568.91;7166713;40;20262;31
2024/01/20 15:23:49;;;;;;;44.03;26.33;;;;;;;-0.05;82.57;100566.59;7258799;40;20274;31
2024/01/20 15:29:24;;;;;;;32.20;20.00;;;;;;;-0.11;82.97;100555.37;7247635;40;20268;31
2024/01/20 15:34:44;;;;;;;25.00;17.90;;;;;;;-0.12;83.05;100557.16;7238768;40;20246;31
2024/01/20 15:40:20;;;;;;;24.83;16.20;;;;;;;-0.18;83.00;100538.03;7239905;39;20343;31
2024/01/20 15:45:41;;;;;;;22.80;16.55;;;;;;;-0.19;83.45;100544.25;7209016;40;20304;31
2024/01/20 15:51:01;;;;;;;27.87;17.40;;;;;;;-0.21;83.69;100554.06;7191165;40;20235;31
2024/01/20 16:01:42;;;;;;;25.00;16.95;;;;;;;-0.47;83.65;100553.38;7235766;40;20739;31
2024/01/20 16:12:07;;;;;;;26.80;17.70;;;;;;;-0.71;83.13;100566.78;7282940;39;20807;31
2024/01/20 16:22:47;;;;;;;26.77;15.97;;;;;;;-1.07;83.14;100551.44;7329480;39;21264;31
2024/01/20 16:28:07;;;;;;;25.30;15.40;;;;;;;-1.13;83.89;100554.31;7280930;40;20391;31
2024/01/20 16:33:44;;;;;;;24.40;16.45;;;;;;;-1.22;83.95;100544.09;7259441;40;21312;31
2024/01/20 16:39:19;;;;;;;25.90;15.80;;;;;;;-1.27;84.82;100558.44;7240759;40;20325;31
2024/01/20 16:44:54;;;;;;;25.70;16.60;;;;;;;-1.40;84.65;100558.03;7215209;40;20316;31
2024/01/20 16:50:29;;;;;;;25.30;15.20;;;;;;;-1.40;84.62;100558.03;7197252;40;20254;31
2024/01/20 16:56:05;;;;;;;24.93;16.30;;;;;;;-1.46;85.54;100553.84;7170832;40;20282;31
2024/01/20 17:06:28;;;;;;;26.83;17.33;;;;;;;-1.53;85.70;100570.84;7199241;40;21330;31
2024/01/20 17:12:04;;;;;;;25.53;16.63;;;;;;;-1.58;86.64;100572.78;7223366;40;20238;31
2024/01/20 17:17:25;;;;;;;28.10;15.50;;;;;;;-1.66;87.09;100588.06;7212354;40;20308;31
2024/01/20 17:23:00;;;;;;;27.33;17.73;;;;;;;-1.64;87.34;100580.09;7295997;39;20272;31
2024/01/20 17:33:41;;;;;;;23.30;15.05;;;;;;;-1.63;86.18;100566.84;7254792;40;20762;31
2024/01/20 17:39:16;;;;;;;25.57;14.80;;;;;;;-1.65;86.10;100568.66;7261498;39;20324;31
2024/01/20 17:44:37;;;;;;;22.93;14.47;;;;;;;-1.73;86.75;100575.16;7255843;39;20260;31
2024/01/20 17:50:13;;;;;;;24.30;15.25;;;;;;;-1.72;86.73;100567.16;7299547;39;20241;31
2024/01/20 17:55:31;;;;;;;23.07;14.57;;;;;;;-1.78;86.04;100579.72;7256627;40;21513;31
2024/01/20 18:00:52;;;;;;;22.55;14.50;;;;;;;-1.83;85.99;100570.19;7249890;39;20265;31
2024/01/20 18:06:28;;;;;;;22.60;12.80;;;;;;;-2.02;86.12;100561.19;7262350;39;20269;31
2024/01/20 18:12:03;;;;;;;21.20;13.45;;;;;;;-2.01;86.15;100552.34;7265691;39;20265;31
2024/01/20 18:17:24;;;;;;;24.80;13.80;;;;;;;-1.92;85.95;100564.38;7234377;40;20347;31
2024/01/20 18:23:00;;;;;;;22.37;14.20;;;;;;;-1.92;85.30;100554.66;7286908;39;20261;31
2024/01/20 18:28:35;;;;;;;20.05;13.30;;;;;;;-1.92;85.12;100559.94;7218881;40;20282;31
2024/01/20 18:34:11;;;;;;;19.75;13.35;;;;;;;-1.94;85.14;100576.78;7236776;40;20320;31
2024/01/20 18:39:47;;;;;;;21.00;13.90;;;;;;;-1.93;85.56;100574.06;7195991;40;20376;31
2024/01/20 18:45:23;;;;;;;20.40;13.53;;;;;;;-1.94;85.21;100574.16;7228683;40;20406;31
2024/01/20 18:50:57;;;;;;;22.40;13.50;;;;;;;-2.02;84.78;100568.28;7191567;40;20247;31
2024/01/20 18:56:33;;;;;;;26.20;15.60;;;;;;;-2.15;85.29;100556.41;7158173;40;20460;31
2024/01/20 19:02:08;;;;;;;21.47;13.67;;;;;;;-2.21;85.10;100560.13;7168612;40;20238;31
2024/01/20 19:07:44;;;;;;;22.07;14.70;;;;;;;-2.28;85.86;100563.88;7156031;40;20275;31
2024/01/20 19:13:20;;;;;;;22.75;13.75;;;;;;;-2.24;85.45;100562.87;7144676;40;20314;31
2024/01/20 19:18:55;;;;;;;25.80;14.85;;;;;;;-2.27;86.06;100571.75;7176471;40;20482;31
2024/01/20 19:24:16;;;;;;;24.15;12.95;;;;;;;-2.36;86.58;100579.13;7227899;40;20340;31
2024/01/20 19:29:51;;;;;;;28.83;18.23;;;;;;;-2.31;86.68;100574.56;7242670;40;20443;31
2024/01/20 19:35:11;;;;;;;26.27;15.90;;;;;;;-2.28;85.52;100579.72;7226190;40;20256;31
2024/01/20 19:40:32;;;;;;;27.33;17.47;;;;;;;-2.28;85.72;100572.66;7285223;39;20245;31
2024/01/20 19:46:09;;;;;;;28.80;17.27;;;;;;;-2.34;85.26;100578.16;7276539;39;20328;31
2024/01/20 19:51:31;;;;;;;29.80;16.77;;;;;;;-2.38;85.96;100571.28;7254382;40;20313;31
2024/01/20 20:02:10;;;;;;;21.73;15.03;;;;;;;-2.38;85.26;100549.28;7221275;40;20733;31
2024/01/20 20:12:34;;;;;;;23.60;13.60;;;;;;;-2.79;84.74;100525.16;7236760;40;20404;31
2024/01/20 20:18:12;;;;;;;24.47;14.83;;;;;;;-3.02;85.03;100540.84;7242044;39;20258;31
2024/01/20 20:23:31;;;;;;;21.25;13.15;;;;;;;-3.02;85.26;100527.66;7259438;40;20242;31
2024/01/20 20:29:07;;;;;;;21.40;13.40;;;;;;;-2.95;85.21;100528.34;7238652;40;20392;31
2024/01/20 20:34:41;;;;;;;21.53;12.93;;;;;;;-3.11;84.94;100519.19;7214153;40;20265;31
2024/01/20 20:40:16;;;;;;;27.50;17.33;;;;;;;-3.26;85.54;100520.53;7236561;40;20270;31
2024/01/20 20:45:36;;;;;;;25.47;14.40;;;;;;;-3.22;87.09;100511.63;7200530;40;20269;31
2024/01/20 20:51:13;;;;;;;25.93;15.13;;;;;;;-3.01;87.53;100508.31;7209443;40;20238;31
2024/01/20 20:56:48;;;;;;;23.07;14.13;;;;;;;-2.83;87.80;100497.16;7188395;40;20243;31
2024/01/20 21:02:08;;;;;;;22.87;12.80;;;;;;;-2.80;87.70;100498.81;7233426;40;20323;31
2024/01/20 21:07:43;;;;;;;21.50;13.00;;;;;;;-2.91;86.29;100490.41;7300135;39;20244;31
2024/01/20 21:13:18;;;;;;;24.90;15.77;;;;;;;-2.99;87.31;100477.47;7245491;40;20257;31
2024/01/20 21:18:54;;;;;;;26.60;16.30;;;;;;;-3.14;85.57;100483.25;7239192;40;20237;31
2024/01/20 21:24:26;;;;;;;26.63;15.97;;;;;;;-3.20;87.12;100472.88;7145841;40;20392;31
2024/01/20 21:35:05;;;;;;;22.20;13.10;;;;;;;-3.10;87.17;100478.72;7140702;40;21352;31
2024/01/20 21:40:36;;;;;;;28.90;15.83;;;;;;;-3.19;86.21;100479.88;7170010;40;20356;31
2024/01/20 21:51:01;;;;;;;27.23;15.43;;;;;;;-3.33;86.34;100458.38;7336679;39;20619;31
2024/01/20 22:01:42;;;;;;;25.50;14.70;;;;;;;-3.70;86.27;100467.44;7299504;39;20753;31
2024/01/20 22:06:59;;;;;;;25.20;14.57;;;;;;;-3.63;86.56;100457.56;7054977;40;20233;31
2024/01/20 22:12:20;;;;;;;27.20;15.33;;;;;;;-3.51;86.21;100448.44;7239404;40;20368;31
2024/01/20 22:17:55;;;;;;;24.67;15.07;;;;;;;-3.51;86.52;100436.09;7279247;39;20237;31
2024/01/20 22:23:27;;;;;;;20.55;10.40;;;;;;;-3.38;88.28;100452.41;7218574;40;20266;31
2024/01/20 22:34:07;;;;;;;26.10;14.40;;;;;;;-3.44;86.56;100461.38;7227898;40;20266;31
2024/01/20 22:39:27;;;;;;;24.87;14.00;;;;;;;-3.48;86.35;100461.50;7205252;40;20243;31
2024/01/20 22:45:07;;;;;;;23.13;13.67;;;;;;;-3.48;85.65;100465.00;7223663;40;20315;31
2024/01/20 22:50:39;;;;;;;25.70;14.80;;;;;;;-3.59;85.58;100459.19;7199114;40;20254;31
2024/01/20 22:56:14;;;;;;;25.73;13.80;;;;;;;-3.60;85.70;100456.63;7194370;40;20304;31
2024/01/20 23:01:49;;;;;;;29.13;17.27;;;;;;;-3.73;86.89;100459.62;7198387;40;20247;31
2024/01/20 23:07:25;;;;;;;23.87;13.93;;;;;;;-3.86;86.01;100458.25;7195848;40;20242;31
2024/01/20 23:13:00;;;;;;;26.20;13.93;;;;;;;-3.87;86.33;100464.47;7151888;40;20244;31
2024/01/20 23:18:17;;;;;;;24.17;14.60;;;;;;;-3.89;86.02;100476.78;7127794;40;20605;31
2024/01/20 23:23:52;;;;;;;23.10;13.90;;;;;;;-3.84;85.41;100479.28;7213099;40;20276;31
2024/01/20 23:29:12;;;;;;;24.80;14.90;;;;;;;-3.89;85.54;100470.66;7184488;40;20249;31
2024/01/20 23:34:33;;;;;;;24.93;14.43;;;;;;;-3.95;85.29;100474.31;7197928;40;20242;31
2024/01/20 23:40:06;;;;;;;23.00;14.47;;;;;;;-4.11;86.17;100465.16;7225723;40;21243;31
2024/01/20 23:45:27;;;;;;;24.40;14.23;;;;;;;-4.10;86.15;100456.34;7197528;40;20265;31
2024/01/20 23:50:47;;;;;;;26.27;15.53;;;;;;;-3.96;86.10;100453.31;7219852;40;20265;31
2024/01/20 23:56:18;;;;;;;24.05;13.95;;;;;;;-3.98;84.75;100444.59;7239363;40;20274;31
